createdAt,value
2022-11-14T15:48:21.718Z,9.80
2022-11-14T15:52:50.423Z,9.80
2022-11-14T15:57:14.336Z,9.79
2022-11-14T16:01:35.850Z,9.73
2022-11-14T16:05:58.704Z,9.72
2022-11-14T16:10:22.260Z,9.72
2022-11-14T16:14:44.891Z,9.71
2022-11-14T16:19:07.270Z,9.70
2022-11-14T16:23:30.554Z,9.70
2022-11-14T16:27:51.881Z,9.66
2022-11-14T16:32:13.232Z,9.65
2022-11-14T16:36:34.543Z,9.67
2022-11-14T16:40:57.117Z,9.62
2022-11-14T16:45:20.160Z,9.63
2022-11-14T16:49:41.565Z,9.67
2022-11-14T16:54:03.222Z,9.73
2022-11-14T16:58:26.109Z,9.74
2022-11-14T17:02:47.767Z,9.73
2022-11-14T17:07:09.211Z,9.76
2022-11-14T17:11:30.739Z,9.78
2022-11-14T17:15:53.293Z,9.77
2022-11-14T17:20:14.834Z,9.78
2022-11-14T17:24:36.311Z,9.78
2022-11-14T17:28:57.888Z,9.76
2022-11-14T17:33:20.634Z,9.76
2022-11-14T17:37:42.047Z,9.76
2022-11-14T17:42:03.362Z,9.77
2022-11-14T17:46:25.370Z,9.78
2022-11-14T17:50:48.050Z,9.76
2022-11-14T17:55:09.583Z,9.71
2022-11-14T17:59:32.963Z,9.61
2022-11-14T18:03:54.434Z,9.57
2022-11-14T18:08:17.122Z,9.61
2022-11-14T18:12:38.454Z,9.64
2022-11-14T18:17:12.199Z,9.66
2022-11-14T18:21:33.945Z,9.68
2022-11-14T18:25:56.694Z,9.72
2022-11-14T18:34:56.148Z,9.70
2022-11-14T18:39:17.502Z,9.71
2022-11-14T18:43:40.757Z,9.72
2022-11-14T18:48:02.427Z,9.75
2022-11-14T18:52:23.615Z,9.79
2022-11-14T18:56:44.859Z,9.80
2022-11-14T19:01:11.977Z,9.81
2022-11-14T19:05:36.462Z,9.80
2022-11-14T19:09:58.002Z,9.74
2022-11-14T19:14:19.934Z,9.72
2022-11-14T19:18:42.415Z,9.72
2022-11-14T19:23:03.695Z,9.72
2022-11-14T19:27:25.151Z,9.72
2022-11-14T19:31:46.352Z,9.71
2022-11-14T19:36:12.324Z,9.74
2022-11-14T19:40:33.475Z,9.75
2022-11-14T19:44:55.058Z,9.75
2022-11-14T19:49:16.412Z,9.73
2022-11-14T19:53:40.714Z,9.73
2022-11-14T19:58:01.981Z,9.74
2022-11-14T20:02:23.202Z,9.73
2022-11-14T20:06:44.755Z,9.73
2022-11-14T20:11:07.878Z,9.74
2022-11-14T20:15:30.455Z,9.76
2022-11-14T20:19:51.931Z,9.77
2022-11-14T20:24:17.545Z,9.73
2022-11-14T20:28:40.778Z,9.70
2022-11-14T20:33:02.225Z,9.69
2022-11-14T20:37:23.332Z,9.66
2022-11-14T20:41:45.165Z,9.67
2022-11-14T20:46:13.370Z,9.68
2022-11-14T20:50:34.743Z,9.69
2022-11-14T20:54:56.109Z,9.61
2022-11-14T20:59:17.409Z,9.51
2022-11-14T21:03:40.763Z,9.48
2022-11-14T21:08:01.949Z,9.41
2022-11-14T21:12:23.161Z,9.37
2022-11-14T21:16:44.597Z,9.35
2022-11-14T21:21:09.266Z,9.38
2022-11-14T21:25:31.093Z,9.32
2022-11-14T21:29:52.282Z,9.30
2022-11-14T21:34:15.673Z,9.22
2022-11-14T21:38:38.638Z,9.13
2022-11-14T21:43:00.077Z,9.02
2022-11-14T21:47:21.281Z,8.92
2022-11-14T21:51:42.865Z,8.80
2022-11-14T21:56:14.016Z,8.67
2022-11-14T22:00:35.646Z,8.61
2022-11-14T22:04:56.869Z,8.54
2022-11-14T22:09:19.258Z,8.46
2022-11-14T22:13:42.136Z,8.36
2022-11-14T22:18:03.292Z,8.29
2022-11-14T22:22:24.438Z,8.19
2022-11-14T22:26:45.587Z,8.08
2022-11-14T22:31:10.784Z,7.99
2022-11-14T22:35:35.770Z,7.94
2022-11-14T22:39:57.307Z,7.93
2022-11-14T22:44:18.656Z,7.96
2022-11-14T22:48:42.202Z,8.00
2022-11-14T22:53:03.729Z,8.06
2022-11-14T22:57:25.041Z,8.13
2022-11-14T23:01:46.344Z,8.18
2022-11-14T23:06:09.917Z,8.18
2022-11-14T23:10:31.125Z,8.23
2022-11-14T23:14:52.155Z,8.27
2022-11-14T23:19:13.379Z,8.26
2022-11-14T23:23:36.451Z,8.30
2022-11-14T23:27:58.790Z,8.31
2022-11-14T23:32:19.898Z,8.35
2022-11-14T23:36:41.344Z,8.38
2022-11-14T23:41:04.039Z,8.45
2022-11-14T23:45:25.119Z,8.45
2022-11-14T23:49:46.689Z,8.47
2022-11-14T23:54:07.959Z,8.53
2022-11-14T23:58:31.348Z,8.59
